sensor_id;sensor_type;location;lat;lon;timestamp;temperature;humidity
23723;DHT22;12042;52.136;5.584;2022-08-11T05:48:52;19.50;99.90
23723;DHT22;12042;52.136;5.584;2022-08-11T05:51:43;19.70;99.90
23723;DHT22;12042;52.136;5.584;2022-08-11T05:54:29;19.40;99.90
23723;DHT22;12042;52.136;5.584;2022-08-11T05:57:21;20.00;99.90
23723;DHT22;12042;52.136;5.584;2022-08-11T05:59:48;20.00;99.90
23723;DHT22;12042;52.136;5.584;2022-08-11T06:02:15;20.10;99.90
23723;DHT22;12042;52.136;5.584;2022-08-11T06:04:41;19.60;99.90
23723;DHT22;12042;52.136;5.584;2022-08-11T06:07:08;19.70;99.90
23723;DHT22;12042;52.136;5.584;2022-08-11T06:09:38;20.00;99.90
23723;DHT22;12042;52.136;5.584;2022-08-11T06:12:18;19.80;99.90
23723;DHT22;12042;52.136;5.584;2022-08-11T06:14:45;20.10;99.90
23723;DHT22;12042;52.136;5.584;2022-08-11T06:17:13;20.00;99.90
23723;DHT22;12042;52.136;5.584;2022-08-11T06:19:47;19.90;99.90
23723;DHT22;12042;52.136;5.584;2022-08-11T06:22:19;20.40;99.90
23723;DHT22;12042;52.136;5.584;2022-08-11T06:24:55;20.20;99.90
23723;DHT22;12042;52.136;5.584;2022-08-11T06:27:21;20.20;99.90
23723;DHT22;12042;52.136;5.584;2022-08-11T06:29:49;20.50;99.90
23723;DHT22;12042;52.136;5.584;2022-08-11T06:32:16;20.20;99.90
23723;DHT22;12042;52.136;5.584;2022-08-11T06:35:09;20.40;99.90
23723;DHT22;12042;52.136;5.584;2022-08-11T06:40:40;20.60;99.90
23723;DHT22;12042;52.136;5.584;2022-08-11T06:43:17;20.70;99.90
23723;DHT22;12042;52.136;5.584;2022-08-11T06:46:05;20.80;99.90
23723;DHT22;12042;52.136;5.584;2022-08-11T06:48:33;20.90;99.90
23723;DHT22;12042;52.136;5.584;2022-08-11T06:51:02;21.10;99.90
23723;DHT22;12042;52.136;5.584;2022-08-11T06:53:42;21.10;99.90
23723;DHT22;12042;52.136;5.584;2022-08-11T06:56:10;21.10;99.90
23723;DHT22;12042;52.136;5.584;2022-08-11T06:59:09;21.60;99.90
23723;DHT22;12042;52.136;5.584;2022-08-11T07:03:07;21.20;99.90
23723;DHT22;12042;52.136;5.584;2022-08-11T07:05:16;21.50;99.90
23723;DHT22;12042;52.136;5.584;2022-08-11T07:14:25;21.80;99.90
23723;DHT22;12042;52.136;5.584;2022-08-11T07:17:15;22.00;99.90
23723;DHT22;12042;52.136;5.584;2022-08-11T07:19:50;22.10;99.90
23723;DHT22;12042;52.136;5.584;2022-08-11T07:22:36;22.20;99.90
23723;DHT22;12042;52.136;5.584;2022-08-11T07:25:22;22.10;99.90
23723;DHT22;12042;52.136;5.584;2022-08-11T07:28:17;22.20;99.90
23723;DHT22;12042;52.136;5.584;2022-08-11T07:31:07;22.40;99.90
23723;DHT22;12042;52.136;5.584;2022-08-11T07:33:51;22.70;99.90
23723;DHT22;12042;52.136;5.584;2022-08-11T07:36:20;22.60;99.90
23723;DHT22;12042;52.136;5.584;2022-08-11T07:38:48;22.70;99.90
23723;DHT22;12042;52.136;5.584;2022-08-11T07:41:22;22.70;99.90
23723;DHT22;12042;52.136;5.584;2022-08-11T07:43:51;22.60;99.90
23723;DHT22;12042;52.136;5.584;2022-08-11T07:46:20;22.90;99.90
23723;DHT22;12042;52.136;5.584;2022-08-11T07:49:07;22.90;99.90
23723;DHT22;12042;52.136;5.584;2022-08-11T07:51:53;23.10;99.90
23723;DHT22;12042;52.136;5.584;2022-08-11T07:54:38;23.00;99.90
23723;DHT22;12042;52.136;5.584;2022-08-11T07:57:07;23.20;99.90
23723;DHT22;12042;52.136;5.584;2022-08-11T07:59:52;23.30;99.90
23723;DHT22;12042;52.136;5.584;2022-08-11T08:02:39;23.40;99.90
23723;DHT22;12042;52.136;5.584;2022-08-11T08:05:24;23.70;99.90
23723;DHT22;12042;52.136;5.584;2022-08-11T08:08:08;23.80;99.90
23723;DHT22;12042;52.136;5.584;2022-08-11T08:10:55;24.20;99.90
23723;DHT22;12042;52.136;5.584;2022-08-11T08:13:41;24.20;99.90
23723;DHT22;12042;52.136;5.584;2022-08-11T08:16:26;24.20;99.90
23723;DHT22;12042;52.136;5.584;2022-08-11T08:19:14;24.70;99.90
23723;DHT22;12042;52.136;5.584;2022-08-11T08:21:40;24.80;99.90
23723;DHT22;12042;52.136;5.584;2022-08-11T08:24:06;24.90;99.90
23723;DHT22;12042;52.136;5.584;2022-08-11T08:26:32;25.20;99.90
23723;DHT22;12042;52.136;5.584;2022-08-11T08:29:17;25.60;99.90
23723;DHT22;12042;52.136;5.584;2022-08-11T08:32:03;26.00;99.90
23723;DHT22;12042;52.136;5.584;2022-08-11T08:34:29;26.20;99.90
23723;DHT22;12042;52.136;5.584;2022-08-11T08:36:55;26.50;99.90
23723;DHT22;12042;52.136;5.584;2022-08-11T08:39:21;26.80;99.90
23723;DHT22;12042;52.136;5.584;2022-08-11T08:41:56;27.20;99.90
23723;DHT22;12042;52.136;5.584;2022-08-11T08:44:23;27.20;99.90
23723;DHT22;12042;52.136;5.584;2022-08-11T08:46:54;27.30;99.90
23723;DHT22;12042;52.136;5.584;2022-08-11T08:49:48;27.30;99.90
23723;DHT22;12042;52.136;5.584;2022-08-11T08:52:19;27.70;99.90
23723;DHT22;12042;52.136;5.584;2022-08-11T08:54:50;28.00;99.90
23723;DHT22;12042;52.136;5.584;2022-08-11T08:57:21;27.70;99.90
23723;DHT22;12042;52.136;5.584;2022-08-11T08:59:47;28.00;99.90
23723;DHT22;12042;52.136;5.584;2022-08-11T09:02:14;28.40;99.90
23723;DHT22;12042;52.136;5.584;2022-08-11T09:04:43;28.40;99.90
23723;DHT22;12042;52.136;5.584;2022-08-11T09:07:21;28.50;99.90
23723;DHT22;12042;52.136;5.584;2022-08-11T09:09:50;28.40;99.90
23723;DHT22;12042;52.136;5.584;2022-08-11T09:12:20;28.60;99.90
23723;DHT22;12042;52.136;5.584;2022-08-11T09:14:51;29.00;99.90
23723;DHT22;12042;52.136;5.584;2022-08-11T09:17:45;29.20;99.20
23723;DHT22;12042;52.136;5.584;2022-08-11T09:22:43;29.10;99.50
23723;DHT22;12042;52.136;5.584;2022-08-11T09:25:30;29.20;98.60
23723;DHT22;12042;52.136;5.584;2022-08-11T09:28:15;29.20;98.70
23723;DHT22;12042;52.136;5.584;2022-08-11T09:30:42;29.30;97.20
23723;DHT22;12042;52.136;5.584;2022-08-11T09:33:10;29.20;98.50
23723;DHT22;12042;52.136;5.584;2022-08-11T09:35:38;29.80;97.30
23723;DHT22;12042;52.136;5.584;2022-08-11T09:38:09;29.80;96.10
23723;DHT22;12042;52.136;5.584;2022-08-11T09:40:54;29.90;95.60
23723;DHT22;12042;52.136;5.584;2022-08-11T09:43:20;29.70;96.30
23723;DHT22;12042;52.136;5.584;2022-08-11T09:46:06;29.80;96.80
23723;DHT22;12042;52.136;5.584;2022-08-11T09:48:42;30.50;95.40
23723;DHT22;12042;52.136;5.584;2022-08-11T09:51:09;30.20;93.80
23723;DHT22;12042;52.136;5.584;2022-08-11T09:53:37;30.10;93.80
23723;DHT22;12042;52.136;5.584;2022-08-11T09:56:06;30.30;93.60
23723;DHT22;12042;52.136;5.584;2022-08-11T09:58:50;30.20;94.30
23723;DHT22;12042;52.136;5.584;2022-08-11T10:01:20;30.40;94.70
23723;DHT22;12042;52.136;5.584;2022-08-11T10:04:20;30.60;93.30
23723;DHT22;12042;52.136;5.584;2022-08-11T10:06:50;30.80;93.50
23723;DHT22;12042;52.136;5.584;2022-08-11T10:10:09;31.00;92.20
23723;DHT22;12042;52.136;5.584;2022-08-11T10:12:37;30.90;92.20
23723;DHT22;12042;52.136;5.584;2022-08-11T10:15:09;31.10;92.20
23723;DHT22;12042;52.136;5.584;2022-08-11T10:17:57;31.20;91.20
23723;DHT22;12042;52.136;5.584;2022-08-11T10:20:44;30.90;92.40
23723;DHT22;12042;52.136;5.584;2022-08-11T10:23:12;31.00;90.90
23723;DHT22;12042;52.136;5.584;2022-08-11T10:25:57;31.20;93.10
23723;DHT22;12042;52.136;5.584;2022-08-11T10:28:41;31.60;90.80
23723;DHT22;12042;52.136;5.584;2022-08-11T10:31:08;31.90;90.50
23723;DHT22;12042;52.136;5.584;2022-08-11T10:33:53;31.60;90.60
23723;DHT22;12042;52.136;5.584;2022-08-11T10:36:26;31.60;90.30
23723;DHT22;12042;52.136;5.584;2022-08-11T10:38:53;31.40;90.70
23723;DHT22;12042;52.136;5.584;2022-08-11T10:41:20;31.70;91.70
23723;DHT22;12042;52.136;5.584;2022-08-11T10:44:08;31.60;90.20
23723;DHT22;12042;52.136;5.584;2022-08-11T10:46:35;31.50;90.00
23723;DHT22;12042;52.136;5.584;2022-08-11T10:49:19;31.60;90.00
23723;DHT22;12042;52.136;5.584;2022-08-11T10:51:46;31.50;90.20
23723;DHT22;12042;52.136;5.584;2022-08-11T10:54:32;31.70;91.20
23723;DHT22;12042;52.136;5.584;2022-08-11T10:57:17;31.80;90.20
23723;DHT22;12042;52.136;5.584;2022-08-11T11:00:03;31.60;88.60
23723;DHT22;12042;52.136;5.584;2022-08-11T11:02:31;31.40;89.00
23723;DHT22;12042;52.136;5.584;2022-08-11T11:08:07;31.50;90.40
23723;DHT22;12042;52.136;5.584;2022-08-11T11:10:29;31.80;88.50
23723;DHT22;12042;52.136;5.584;2022-08-11T11:12:56;31.40;88.50
23723;DHT22;12042;52.136;5.584;2022-08-11T11:15:45;31.40;89.30
23723;DHT22;12042;52.136;5.584;2022-08-11T11:18:36;31.30;89.20
23723;DHT22;12042;52.136;5.584;2022-08-11T11:21:10;31.30;88.70
23723;DHT22;12042;52.136;5.584;2022-08-11T11:37:36;32.10;87.30
23723;DHT22;12042;52.136;5.584;2022-08-11T11:40:09;32.20;86.60
23723;DHT22;12042;52.136;5.584;2022-08-11T11:42:36;32.60;86.30
23723;DHT22;12042;52.136;5.584;2022-08-11T11:45:02;32.80;84.90
23723;DHT22;12042;52.136;5.584;2022-08-11T11:47:29;32.40;83.60
23723;DHT22;12042;52.136;5.584;2022-08-11T11:49:56;32.40;84.50
23723;DHT22;12042;52.136;5.584;2022-08-11T11:52:22;32.20;84.00
23723;DHT22;12042;52.136;5.584;2022-08-11T11:54:52;32.00;84.50
23723;DHT22;12042;52.136;5.584;2022-08-11T11:57:20;32.10;87.10
23723;DHT22;12042;52.136;5.584;2022-08-11T12:00:09;32.50;86.20
23723;DHT22;12042;52.136;5.584;2022-08-11T12:03:02;32.80;86.30
23723;DHT22;12042;52.136;5.584;2022-08-11T12:05:30;33.00;81.70
23723;DHT22;12042;52.136;5.584;2022-08-11T12:07:56;33.10;81.90
23723;DHT22;12042;52.136;5.584;2022-08-11T12:10:43;33.20;82.50
23723;DHT22;12042;52.136;5.584;2022-08-11T12:13:12;33.20;81.30
23723;DHT22;12042;52.136;5.584;2022-08-11T12:15:58;33.50;81.90
23723;DHT22;12042;52.136;5.584;2022-08-11T12:18:37;33.00;81.70
23723;DHT22;12042;52.136;5.584;2022-08-11T12:21:03;32.90;82.10
23723;DHT22;12042;52.136;5.584;2022-08-11T12:23:31;32.60;81.20
23723;DHT22;12042;52.136;5.584;2022-08-11T12:26:17;32.50;82.00
23723;DHT22;12042;52.136;5.584;2022-08-11T12:29:03;32.40;82.50
23723;DHT22;12042;52.136;5.584;2022-08-11T12:31:30;32.40;82.10
23723;DHT22;12042;52.136;5.584;2022-08-11T12:34:04;32.40;82.10
23723;DHT22;12042;52.136;5.584;2022-08-11T12:36:36;32.60;82.80
23723;DHT22;12042;52.136;5.584;2022-08-11T12:39:06;33.10;84.80
23723;DHT22;12042;52.136;5.584;2022-08-11T12:41:34;33.50;84.50
23723;DHT22;12042;52.136;5.584;2022-08-11T12:44:20;33.70;80.10
23723;DHT22;12042;52.136;5.584;2022-08-11T12:47:07;33.30;80.50
23723;DHT22;12042;52.136;5.584;2022-08-11T12:49:37;33.20;78.20
23723;DHT22;12042;52.136;5.584;2022-08-11T12:52:26;33.40;80.10
23723;DHT22;12042;52.136;5.584;2022-08-11T12:57:40;33.50;77.90
23723;DHT22;12042;52.136;5.584;2022-08-11T13:00:26;33.20;79.20
23723;DHT22;12042;52.136;5.584;2022-08-11T13:03:11;33.10;79.80
23723;DHT22;12042;52.136;5.584;2022-08-11T13:05:59;33.10;79.60
23723;DHT22;12042;52.136;5.584;2022-08-11T13:08:27;33.30;78.80
23723;DHT22;12042;52.136;5.584;2022-08-11T13:10:56;33.80;76.70
23723;DHT22;12042;52.136;5.584;2022-08-11T13:13:41;33.80;77.10
23723;DHT22;12042;52.136;5.584;2022-08-11T13:16:09;33.80;76.90
23723;DHT22;12042;52.136;5.584;2022-08-11T13:18:36;33.70;78.40
23723;DHT22;12042;52.136;5.584;2022-08-11T13:21:06;33.70;76.50
23723;DHT22;12042;52.136;5.584;2022-08-11T13:23:34;33.60;77.50
23723;DHT22;12042;52.136;5.584;2022-08-11T13:26:00;33.70;76.30
23723;DHT22;12042;52.136;5.584;2022-08-11T13:28:26;34.10;81.00
23723;DHT22;12042;52.136;5.584;2022-08-11T13:30:52;34.40;76.40
23723;DHT22;12042;52.136;5.584;2022-08-11T13:34:02;34.30;76.00
23723;DHT22;12042;52.136;5.584;2022-08-11T13:36:32;34.10;74.80
23723;DHT22;12042;52.136;5.584;2022-08-11T13:38:58;34.00;76.20
23723;DHT22;12042;52.136;5.584;2022-08-11T13:41:26;33.80;76.20
23723;DHT22;12042;52.136;5.584;2022-08-11T13:44:06;33.90;74.70
23723;DHT22;12042;52.136;5.584;2022-08-11T13:46:33;34.00;76.20
23723;DHT22;12042;52.136;5.584;2022-08-11T13:48:59;34.10;76.60
23723;DHT22;12042;52.136;5.584;2022-08-11T13:51:25;34.00;73.10
23723;DHT22;12042;52.136;5.584;2022-08-11T13:54:06;33.90;74.10
23723;DHT22;12042;52.136;5.584;2022-08-11T13:56:35;33.60;74.70
23723;DHT22;12042;52.136;5.584;2022-08-11T13:59:04;33.70;76.30
23723;DHT22;12042;52.136;5.584;2022-08-11T14:01:37;34.10;74.30
23723;DHT22;12042;52.136;5.584;2022-08-11T14:04:13;34.00;73.60
23723;DHT22;12042;52.136;5.584;2022-08-11T14:06:45;33.90;76.50
23723;DHT22;12042;52.136;5.584;2022-08-11T14:09:11;33.90;78.20
23723;DHT22;12042;52.136;5.584;2022-08-11T14:11:40;34.30;75.10
23723;DHT22;12042;52.136;5.584;2022-08-11T14:14:31;34.50;72.20
23723;DHT22;12042;52.136;5.584;2022-08-11T14:17:03;34.40;72.70
23723;DHT22;12042;52.136;5.584;2022-08-11T14:19:31;34.40;73.00
23723;DHT22;12042;52.136;5.584;2022-08-11T14:22:00;34.50;72.50
23723;DHT22;12042;52.136;5.584;2022-08-11T14:24:34;34.80;73.20
23723;DHT22;12042;52.136;5.584;2022-08-11T14:27:01;34.60;70.70
23723;DHT22;12042;52.136;5.584;2022-08-11T14:29:28;34.50;71.10
23723;DHT22;12042;52.136;5.584;2022-08-11T14:32:02;34.40;71.40
23723;DHT22;12042;52.136;5.584;2022-08-11T14:34:29;34.20;71.90
23723;DHT22;12042;52.136;5.584;2022-08-11T14:36:59;34.00;71.50
23723;DHT22;12042;52.136;5.584;2022-08-11T14:39:32;34.10;72.50
23723;DHT22;12042;52.136;5.584;2022-08-11T14:42:04;34.10;71.30
23723;DHT22;12042;52.136;5.584;2022-08-11T14:44:55;34.10;71.90
23723;DHT22;12042;52.136;5.584;2022-08-11T14:47:42;34.40;72.50
23723;DHT22;12042;52.136;5.584;2022-08-11T14:50:12;34.50;71.00
23723;DHT22;12042;52.136;5.584;2022-08-11T14:52:49;34.60;70.20
23723;DHT22;12042;52.136;5.584;2022-08-11T14:55:15;34.40;69.70
23723;DHT22;12042;52.136;5.584;2022-08-11T14:58:00;33.90;70.30
23723;DHT22;12042;52.136;5.584;2022-08-11T15:00:27;33.70;71.60
23723;DHT22;12042;52.136;5.584;2022-08-11T15:02:53;33.60;71.10
23723;DHT22;12042;52.136;5.584;2022-08-11T15:05:40;33.80;72.60
23723;DHT22;12042;52.136;5.584;2022-08-11T15:08:07;33.60;72.10
23723;DHT22;12042;52.136;5.584;2022-08-11T15:10:33;33.80;73.30
23723;DHT22;12042;52.136;5.584;2022-08-11T15:13:00;33.90;72.70
23723;DHT22;12042;52.136;5.584;2022-08-11T15:15:26;34.00;70.10
23723;DHT22;12042;52.136;5.584;2022-08-11T15:18:14;33.70;70.40
23723;DHT22;12042;52.136;5.584;2022-08-11T15:20:42;33.70;74.00
23723;DHT22;12042;52.136;5.584;2022-08-11T15:23:27;33.80;71.20
23723;DHT22;12042;52.136;5.584;2022-08-11T15:26:36;33.70;72.80
23723;DHT22;12042;52.136;5.584;2022-08-11T15:29:27;33.70;71.50
23723;DHT22;12042;52.136;5.584;2022-08-11T15:32:13;33.50;70.70
23723;DHT22;12042;52.136;5.584;2022-08-11T15:34:50;33.50;70.90
23723;DHT22;12042;52.136;5.584;2022-08-11T15:37:36;33.50;71.90
23723;DHT22;12042;52.136;5.584;2022-08-11T15:40:17;33.60;70.60
23723;DHT22;12042;52.136;5.584;2022-08-11T15:43:24;33.50;70.80
23723;DHT22;12042;52.136;5.584;2022-08-11T15:49:02;33.50;72.90
23723;DHT22;12042;52.136;5.584;2022-08-11T15:51:47;33.80;70.90
23723;DHT22;12042;52.136;5.584;2022-08-11T15:54:17;33.70;70.30
23723;DHT22;12042;52.136;5.584;2022-08-11T15:56:48;33.70;70.00
23723;DHT22;12042;52.136;5.584;2022-08-11T15:59:16;33.60;69.50
23723;DHT22;12042;52.136;5.584;2022-08-11T16:02:03;33.40;71.20
23723;DHT22;12042;52.136;5.584;2022-08-11T16:04:56;33.50;72.40
23723;DHT22;12042;52.136;5.584;2022-08-11T16:07:26;33.70;72.20
23723;DHT22;12042;52.136;5.584;2022-08-11T16:10:01;33.80;73.70
23723;DHT22;12042;52.136;5.584;2022-08-11T16:12:34;33.70;72.50
23723;DHT22;12042;52.136;5.584;2022-08-11T16:15:03;33.60;72.30
23723;DHT22;12042;52.136;5.584;2022-08-11T16:17:58;33.40;72.60
23723;DHT22;12042;52.136;5.584;2022-08-11T16:20:26;33.20;74.30
23723;DHT22;12042;52.136;5.584;2022-08-11T16:22:56;33.20;73.40
23723;DHT22;12042;52.136;5.584;2022-08-11T16:25:24;33.20;73.60
23723;DHT22;12042;52.136;5.584;2022-08-11T16:27:54;33.30;74.20
23723;DHT22;12042;52.136;5.584;2022-08-11T16:30:21;33.20;73.50
23723;DHT22;12042;52.136;5.584;2022-08-11T16:32:49;33.10;73.20
23723;DHT22;12042;52.136;5.584;2022-08-11T16:35:22;32.80;73.60
23723;DHT22;12042;52.136;5.584;2022-08-11T16:38:07;32.70;74.20
23723;DHT22;12042;52.136;5.584;2022-08-11T16:40:52;32.90;74.20
23723;DHT22;12042;52.136;5.584;2022-08-11T16:43:24;33.00;75.90
23723;DHT22;12042;52.136;5.584;2022-08-11T16:46:11;33.00;76.80
23723;DHT22;12042;52.136;5.584;2022-08-11T16:48:46;33.20;73.40
23723;DHT22;12042;52.136;5.584;2022-08-11T16:51:12;32.80;74.10
23723;DHT22;12042;52.136;5.584;2022-08-11T16:53:39;32.80;73.90
23723;DHT22;12042;52.136;5.584;2022-08-11T16:56:08;32.80;74.00
23723;DHT22;12042;52.136;5.584;2022-08-11T16:58:37;32.60;74.50
23723;DHT22;12042;52.136;5.584;2022-08-11T17:01:23;32.60;74.00
23723;DHT22;12042;52.136;5.584;2022-08-11T17:03:58;32.60;74.80
23723;DHT22;12042;52.136;5.584;2022-08-11T17:06:45;32.50;73.90
23723;DHT22;12042;52.136;5.584;2022-08-11T17:09:33;32.60;75.30
23723;DHT22;12042;52.136;5.584;2022-08-11T17:12:21;32.80;74.70
23723;DHT22;12042;52.136;5.584;2022-08-11T17:15:11;32.70;73.80
23723;DHT22;12042;52.136;5.584;2022-08-11T17:17:59;32.40;74.50
23723;DHT22;12042;52.136;5.584;2022-08-11T17:20:27;32.40;74.70
23723;DHT22;12042;52.136;5.584;2022-08-11T17:22:54;32.50;74.40
23723;DHT22;12042;52.136;5.584;2022-08-11T17:25:39;32.50;74.40
23723;DHT22;12042;52.136;5.584;2022-08-11T17:28:06;32.40;74.30
23723;DHT22;12042;52.136;5.584;2022-08-11T17:30:33;32.30;73.90
23723;DHT22;12042;52.136;5.584;2022-08-11T17:33:17;32.20;75.50
23723;DHT22;12042;52.136;5.584;2022-08-11T17:36:05;32.30;74.20
23723;DHT22;12042;52.136;5.584;2022-08-11T17:38:32;32.20;74.10
23723;DHT22;12042;52.136;5.584;2022-08-11T17:41:00;32.30;74.70
23723;DHT22;12042;52.136;5.584;2022-08-11T17:43:45;32.20;75.30
23723;DHT22;12042;52.136;5.584;2022-08-11T17:46:31;32.10;74.10
23723;DHT22;12042;52.136;5.584;2022-08-11T17:49:17;32.00;76.10
23723;DHT22;12042;52.136;5.584;2022-08-11T17:51:46;32.20;74.70
23723;DHT22;12042;52.136;5.584;2022-08-11T17:54:33;32.20;74.60
23723;DHT22;12042;52.136;5.584;2022-08-11T17:57:19;32.10;75.50
23723;DHT22;12042;52.136;5.584;2022-08-11T18:00:05;31.90;75.90
23723;DHT22;12042;52.136;5.584;2022-08-11T18:02:37;32.00;76.20
23723;DHT22;12042;52.136;5.584;2022-08-11T18:05:29;31.80;76.30
23723;DHT22;12042;52.136;5.584;2022-08-11T18:07:57;31.80;77.40
23723;DHT22;12042;52.136;5.584;2022-08-11T18:10:42;31.80;76.80
23723;DHT22;12042;52.136;5.584;2022-08-11T18:13:29;31.90;76.90
23723;DHT22;12042;52.136;5.584;2022-08-11T18:16:14;31.60;76.60
23723;DHT22;12042;52.136;5.584;2022-08-11T18:19:00;31.50;77.00
23723;DHT22;12042;52.136;5.584;2022-08-11T18:21:45;31.50;77.80
23723;DHT22;12042;52.136;5.584;2022-08-11T18:24:37;31.30;77.40
23723;DHT22;12042;52.136;5.584;2022-08-11T18:27:25;31.20;77.50
23723;DHT22;12042;52.136;5.584;2022-08-11T18:30:11;31.10;77.60
23723;DHT22;12042;52.136;5.584;2022-08-11T18:33:00;31.00;77.70
23723;DHT22;12042;52.136;5.584;2022-08-11T18:35:49;31.00;78.20
23723;DHT22;12042;52.136;5.584;2022-08-11T18:38:37;30.80;78.50
23723;DHT22;12042;52.136;5.584;2022-08-11T18:41:21;30.60;78.70
23723;DHT22;12042;52.136;5.584;2022-08-11T18:44:09;30.50;79.40
23723;DHT22;12042;52.136;5.584;2022-08-11T18:46:56;30.40;79.40
23723;DHT22;12042;52.136;5.584;2022-08-11T18:49:42;30.30;79.70
23723;DHT22;12042;52.136;5.584;2022-08-11T18:52:29;30.20;80.00
23723;DHT22;12042;52.136;5.584;2022-08-11T18:55:18;30.20;80.30
23723;DHT22;12042;52.136;5.584;2022-08-11T18:58:06;30.00;80.50
23723;DHT22;12042;52.136;5.584;2022-08-11T19:00:53;29.90;80.50
23723;DHT22;12042;52.136;5.584;2022-08-11T19:03:40;29.90;81.10
23723;DHT22;12042;52.136;5.584;2022-08-11T19:06:25;29.80;81.00
23723;DHT22;12042;52.136;5.584;2022-08-11T19:09:14;29.60;81.20
23723;DHT22;12042;52.136;5.584;2022-08-11T19:12:00;29.60;81.30
23723;DHT22;12042;52.136;5.584;2022-08-11T19:14:45;29.60;82.00
23723;DHT22;12042;52.136;5.584;2022-08-11T19:17:31;29.50;81.70
23723;DHT22;12042;52.136;5.584;2022-08-11T19:20:19;29.50;81.90
23723;DHT22;12042;52.136;5.584;2022-08-11T19:23:06;29.50;81.90
23723;DHT22;12042;52.136;5.584;2022-08-11T19:25:52;29.40;82.10
23723;DHT22;12042;52.136;5.584;2022-08-11T19:28:38;29.40;82.70
23723;DHT22;12042;52.136;5.584;2022-08-11T19:31:24;29.30;82.20
23723;DHT22;12042;52.136;5.584;2022-08-11T19:34:09;29.20;82.60
23723;DHT22;12042;52.136;5.584;2022-08-11T19:36:54;29.20;82.70
23723;DHT22;12042;52.136;5.584;2022-08-11T19:39:40;29.00;82.90
23723;DHT22;12042;52.136;5.584;2022-08-11T19:42:25;29.00;83.70
23723;DHT22;12042;52.136;5.584;2022-08-11T19:45:10;28.90;84.20
23723;DHT22;12042;52.136;5.584;2022-08-11T19:47:55;28.90;84.10
23723;DHT22;12042;52.136;5.584;2022-08-11T19:50:40;28.80;84.40
23723;DHT22;12042;52.136;5.584;2022-08-11T19:53:25;28.70;84.60
23723;DHT22;12042;52.136;5.584;2022-08-11T19:56:10;28.80;84.40
23723;DHT22;12042;52.136;5.584;2022-08-11T19:58:56;28.70;84.70
23723;DHT22;12042;52.136;5.584;2022-08-11T20:01:41;28.50;84.90
23723;DHT22;12042;52.136;5.584;2022-08-11T20:04:26;28.50;84.80
23723;DHT22;12042;52.136;5.584;2022-08-11T20:07:11;28.60;85.00
23723;DHT22;12042;52.136;5.584;2022-08-11T20:09:58;28.40;84.90
23723;DHT22;12042;52.136;5.584;2022-08-11T20:12:45;28.40;85.90
23723;DHT22;12042;52.136;5.584;2022-08-11T20:15:30;28.30;85.80
23723;DHT22;12042;52.136;5.584;2022-08-11T20:18:15;28.20;86.10
23723;DHT22;12042;52.136;5.584;2022-08-11T20:21:00;28.10;86.10
23723;DHT22;12042;52.136;5.584;2022-08-11T20:23:46;28.10;86.40
23723;DHT22;12042;52.136;5.584;2022-08-11T20:26:33;28.00;86.70
23723;DHT22;12042;52.136;5.584;2022-08-11T20:29:18;27.80;86.90
23723;DHT22;12042;52.136;5.584;2022-08-11T20:32:04;27.70;87.40
23723;DHT22;12042;52.136;5.584;2022-08-11T20:34:51;27.60;88.10
23723;DHT22;12042;52.136;5.584;2022-08-11T20:37:36;27.60;88.90
23723;DHT22;12042;52.136;5.584;2022-08-11T20:40:23;27.60;89.60
23723;DHT22;12042;52.136;5.584;2022-08-11T20:43:13;27.50;90.10
23723;DHT22;12042;52.136;5.584;2022-08-11T20:46:00;27.40;90.20
23723;DHT22;12042;52.136;5.584;2022-08-11T20:48:45;27.20;90.40
23723;DHT22;12042;52.136;5.584;2022-08-11T20:51:31;27.20;90.60
